Cocoa, FL (32926)

12:07 AM EDT on September 03, 2014 (GMT -0400)
Cocoa Woods | Change Station
CLOSE
Current Station
Personal Weather Station
Location: Cocoa, FL
Elevation: 59 ft
Nearby Weather Stations

Elev 59 ft 28.40 °N, 80.78 °W | Updated 3 minutes ago

Clear
Clear
87.4 °F
Feels Like 96 °F
N
0.0
Wind Variable Wind from WNW

Today
High -- | Low -- °F
--% Chance of Precip.
Yesterday
High -- | Low -- °F
Precip. -- in
7:02 AM 7:42 PM
First Quarter, 58% visible
Pressure 30.05 in
Visibility 10.0 miles
Clouds Clear
Heat Index 96 °F
Dew Point 74 °F
Humidity 64%
Rainfall 0.00 in
Snow Depth Not available.
UV 0 out of 12
Pollen 7.80 out of 12
Air Quality Not available.
Flu Activity Not available.
METAR KXMR 030358Z AUTO 16006KT 10SM CLR 27/22 A3004 RMK AO2 SLP176 T02710224

More Conditions Fewer Conditions

Pressure 30.05 in
Visibility 10.0 miles
Clouds Clear
Heat Index 96 °F
Dew Point 74 °F
Humidity 64%
Rainfall 0.00 in
Snow Depth Not available.
UV 0 out of 12
Pollen 7.80 out of 12
Air Quality Not available.
Flu Activity Not available.
METAR KXMR 030358Z AUTO 16006KT 10SM CLR 27/22 A3004 RMK AO2 SLP176 T02710224

More Conditions Fewer Conditions

10-Day Weather Forecast

Almanac

Astronomy

Sep. 03, 2014 Rise Set
Actual Time 7:02 AM EDT 7:42 PM EDT
Civil Twilight 6:38 AM EDT 8:05 PM EDT
Nautical Twilight 6:10 AM EDT 8:33 PM EDT
Astronomical Twilight 5:41 AM EDT 9:02 PM EDT
Moon 3:07 PM EDT 1:10 AM EDT
Length of Visible Light 13h 27m
Length of Day
12h 39m
Tomorrow will be 1m 37s shorter.
First Quarter, 58% of the Moon is Illuminated
Today
First Quarter
Sep 8
Full
Sep 15
Last Quarter
Sep 24
New
Oct 1
First Quarter

Yesterday's Extremes

State Highs State Lows

Community

WunderPhotos

Upload Photos

1,749,866 photos uploaded!

Nearby

Snow Depth

Station Depth Elevation
No new snow has been reported.

Earthquake Activity

City Distance Mag. Time & Date
No recent earthquake activity has been reported nearby.
Minimum magnitude displayed is 2.5.

Coastal Water Temperatures

Place Temperature
Trident Pier, FL 87.1 °F
Fort Myers, FL 89.1 °F
Lake Worth, FL 86.0 °F

Nearby Weather Stations